sensor_id;sensor_type;location;lat;lon;timestamp;pressure;altitude;pressure_sealevel;temperature;humidity
69318;BME280;56457;52.190;4.440;2022-09-09T00:00:28;100747.34;;;17.75;100.00
69318;BME280;56457;52.190;4.440;2022-09-09T00:03:23;100739.13;;;17.81;100.00
69318;BME280;56457;52.190;4.440;2022-09-09T00:04:35;100741.31;;;17.71;100.00
69318;BME280;56457;52.190;4.440;2022-09-09T00:05:44;100736.69;;;17.77;100.00
69318;BME280;56457;52.190;4.440;2022-09-09T00:07:59;100745.81;;;17.68;100.00
69318;BME280;56457;52.190;4.440;2022-09-09T00:09:04;100748.38;;;17.71;100.00
69318;BME280;56457;52.190;4.440;2022-09-09T00:11:10;100745.81;;;17.68;100.00
69318;BME280;56457;52.190;4.440;2022-09-09T00:12:23;100742.19;;;17.70;100.00
69318;BME280;56457;52.190;4.440;2022-09-09T00:13:34;100740.38;;;17.72;100.00
69318;BME280;56457;52.190;4.440;2022-09-09T00:17:02;100741.31;;;17.71;100.00
69318;BME280;56457;52.190;4.440;2022-09-09T00:20:04;100733.09;;;17.54;100.00
69318;BME280;56457;52.190;4.440;2022-09-09T00:21:13;100743.47;;;17.60;100.00
69318;BME280;56457;52.190;4.440;2022-09-09T00:22:18;100732.72;;;17.63;100.00
69318;BME280;56457;52.190;4.440;2022-09-09T00:24:28;100739.03;;;17.61;100.00
69318;BME280;56457;52.190;4.440;2022-09-09T00:25:37;100747.66;;;17.66;100.00
69318;BME280;56457;52.190;4.440;2022-09-09T00:26:48;100746.81;;;17.65;100.00
69318;BME280;56457;52.190;4.440;2022-09-09T00:27:51;100747.66;;;17.66;100.00
69318;BME280;56457;52.190;4.440;2022-09-09T00:29:03;100753.06;;;17.63;100.00
69318;BME280;56457;52.190;4.440;2022-09-09T00:30:31;100750.91;;;17.74;100.00
69318;BME280;56457;52.190;4.440;2022-09-09T00:31:32;100749.13;;;17.74;100.00
69318;BME280;56457;52.190;4.440;2022-09-09T00:32:33;100746.53;;;17.73;100.00
69318;BME280;56457;52.190;4.440;2022-09-09T00:33:36;100739.53;;;17.70;100.00
69318;BME280;56457;52.190;4.440;2022-09-09T00:34:42;100740.50;;;17.68;100.00
69318;BME280;56457;52.190;4.440;2022-09-09T00:35:48;100736.00;;;17.71;100.00
69318;BME280;56457;52.190;4.440;2022-09-09T00:36:52;100743.22;;;17.66;100.00
69318;BME280;56457;52.190;4.440;2022-09-09T00:38:00;100739.78;;;17.64;100.00
69318;BME280;56457;52.190;4.440;2022-09-09T00:39:01;100739.66;;;17.67;100.00
69318;BME280;56457;52.190;4.440;2022-09-09T00:40:15;100740.69;;;17.63;100.00
69318;BME280;56457;52.190;4.440;2022-09-09T00:41:30;100737.16;;;17.63;100.00
69318;BME280;56457;52.190;4.440;2022-09-09T00:42:41;100742.53;;;17.61;100.00
69318;BME280;56457;52.190;4.440;2022-09-09T00:43:43;100734.56;;;17.61;100.00
69318;BME280;56457;52.190;4.440;2022-09-09T00:44:58;100738.03;;;17.63;100.00
69318;BME280;56457;52.190;4.440;2022-09-09T00:47:35;100733.47;;;17.67;100.00
69318;BME280;56457;52.190;4.440;2022-09-09T00:48:56;100731.06;;;17.61;100.00
69318;BME280;56457;52.190;4.440;2022-09-09T00:51:40;100724.97;;;17.59;100.00
69318;BME280;56457;52.190;4.440;2022-09-09T00:53:02;100728.34;;;17.62;100.00
69318;BME280;56457;52.190;4.440;2022-09-09T00:54:38;100727.19;;;17.69;100.00
69318;BME280;56457;52.190;4.440;2022-09-09T00:55:48;100720.94;;;17.72;100.00
69318;BME280;56457;52.190;4.440;2022-09-09T00:57:03;100725.25;;;17.74;100.00
69318;BME280;56457;52.190;4.440;2022-09-09T00:58:08;100722.50;;;17.78;100.00
69318;BME280;56457;52.190;4.440;2022-09-09T00:59:32;100720.75;;;17.77;100.00
69318;BME280;56457;52.190;4.440;2022-09-09T01:01:43;100713.78;;;17.74;100.00
69318;BME280;56457;52.190;4.440;2022-09-09T01:04:23;100719.06;;;17.74;100.00
69318;BME280;56457;52.190;4.440;2022-09-09T01:06:34;100716.44;;;17.74;100.00
69318;BME280;56457;52.190;4.440;2022-09-09T01:07:37;100722.50;;;17.78;100.00
69318;BME280;56457;52.190;4.440;2022-09-09T01:10:05;100717.03;;;17.81;100.00
69318;BME280;56457;52.190;4.440;2022-09-09T01:11:24;100718.13;;;17.77;100.00
69318;BME280;56457;52.190;4.440;2022-09-09T01:12:42;100713.78;;;17.74;100.00
69318;BME280;56457;52.190;4.440;2022-09-09T01:13:45;100717.50;;;17.68;100.00
69318;BME280;56457;52.190;4.440;2022-09-09T01:14:51;100720.06;;;17.71;100.00
69318;BME280;56457;52.190;4.440;2022-09-09T01:15:53;100722.25;;;17.60;100.00
69318;BME280;56457;52.190;4.440;2022-09-09T01:16:57;100714.28;;;17.60;100.00
69318;BME280;56457;52.190;4.440;2022-09-09T01:18:04;100712.44;;;17.62;100.00
69318;BME280;56457;52.190;4.440;2022-09-09T01:19:07;100714.91;;;17.67;100.00
69318;BME280;56457;52.190;4.440;2022-09-09T01:21:51;100718.22;;;17.73;100.00
69318;BME280;56457;52.190;4.440;2022-09-09T01:23:37;100706.75;;;17.73;100.00
69318;BME280;56457;52.190;4.440;2022-09-09T01:26:21;100705.91;;;17.71;100.00
69318;BME280;56457;52.190;4.440;2022-09-09T01:27:23;100708.41;;;17.75;100.00
69318;BME280;56457;52.190;4.440;2022-09-09T01:28:26;100710.94;;;17.79;100.00
69318;BME280;56457;52.190;4.440;2022-09-09T01:29:28;100703.59;;;17.85;100.00
69318;BME280;56457;52.190;4.440;2022-09-09T01:30:29;100703.47;;;17.88;100.00
69318;BME280;56457;52.190;4.440;2022-09-09T01:31:40;100705.16;;;17.91;100.00
69318;BME280;56457;52.190;4.440;2022-09-09T01:32:49;100708.72;;;17.90;100.00
69318;BME280;56457;52.190;4.440;2022-09-09T01:33:50;100708.91;;;17.85;100.00
69318;BME280;56457;52.190;4.440;2022-09-09T01:34:51;100711.56;;;17.85;100.00
69318;BME280;56457;52.190;4.440;2022-09-09T01:35:58;100710.69;;;17.85;100.00
69318;BME280;56457;52.190;4.440;2022-09-09T01:37:03;100700.00;;;17.86;100.00
69318;BME280;56457;52.190;4.440;2022-09-09T01:38:05;100699.03;;;17.89;100.00
69318;BME280;56457;52.190;4.440;2022-09-09T01:39:06;100702.44;;;17.92;100.00
69318;BME280;56457;52.190;4.440;2022-09-09T01:40:08;100698.13;;;17.90;100.00
69318;BME280;56457;52.190;4.440;2022-09-09T01:41:08;100689.34;;;17.88;100.00
69318;BME280;56457;52.190;4.440;2022-09-09T01:42:12;100690.88;;;17.93;100.00
69318;BME280;56457;52.190;4.440;2022-09-09T01:43:13;100684.84;;;17.90;100.00
69318;BME280;56457;52.190;4.440;2022-09-09T01:44:14;100687.53;;;17.88;100.00
69318;BME280;56457;52.190;4.440;2022-09-09T01:45:15;100684.16;;;17.85;100.00
69318;BME280;56457;52.190;4.440;2022-09-09T01:46:16;100694.63;;;17.88;100.00
69318;BME280;56457;52.190;4.440;2022-09-09T01:47:17;100685.78;;;17.89;100.00
69318;BME280;56457;52.190;4.440;2022-09-09T01:48:18;100689.34;;;17.88;100.00
69318;BME280;56457;52.190;4.440;2022-09-09T01:49:19;100684.47;;;17.77;100.00
69318;BME280;56457;52.190;4.440;2022-09-09T01:50:20;100692.44;;;17.77;100.00
69318;BME280;56457;52.190;4.440;2022-09-09T01:51:21;100692.31;;;17.80;100.00
69318;BME280;56457;52.190;4.440;2022-09-09T01:52:22;100690.41;;;17.84;100.00
69318;BME280;56457;52.190;4.440;2022-09-09T01:53:23;100686.03;;;17.83;100.00
69318;BME280;56457;52.190;4.440;2022-09-09T01:54:26;100687.00;;;17.80;100.00
69318;BME280;56457;52.190;4.440;2022-09-09T01:55:42;100684.47;;;17.77;100.00
69318;BME280;56457;52.190;4.440;2022-09-09T01:57:18;100687.13;;;17.77;100.00
69318;BME280;56457;52.190;4.440;2022-09-09T01:58:51;100677.63;;;17.70;100.00
69318;BME280;56457;52.190;4.440;2022-09-09T02:00:10;100679.50;;;17.68;100.00
69318;BME280;56457;52.190;4.440;2022-09-09T02:04:18;100684.06;;;17.64;100.00
69318;BME280;56457;52.190;4.440;2022-09-09T02:05:41;100685.09;;;17.60;100.00
69318;BME280;56457;52.190;4.440;2022-09-09T02:06:45;100684.25;;;17.60;100.00
69318;BME280;56457;52.190;4.440;2022-09-09T02:07:49;100675.28;;;17.62;100.00
69318;BME280;56457;52.190;4.440;2022-09-09T02:08:59;100673.63;;;17.60;100.00
69318;BME280;56457;52.190;4.440;2022-09-09T02:10:20;100679.03;;;17.57;100.00
69318;BME280;56457;52.190;4.440;2022-09-09T02:11:23;100676.34;;;17.58;100.00
69318;BME280;56457;52.190;4.440;2022-09-09T02:12:25;100678.06;;;17.59;100.00
69318;BME280;56457;52.190;4.440;2022-09-09T02:13:29;100671.78;;;17.62;100.00
69318;BME280;56457;52.190;4.440;2022-09-09T02:14:35;100673.22;;;17.70;100.00
69318;BME280;56457;52.190;4.440;2022-09-09T02:15:42;100671.47;;;17.69;100.00
69318;BME280;56457;52.190;4.440;2022-09-09T02:16:50;100670.66;;;17.67;100.00
69318;BME280;56457;52.190;4.440;2022-09-09T02:17:55;100668.59;;;17.75;100.00
69318;BME280;56457;52.190;4.440;2022-09-09T02:19:15;100671.22;;;17.77;100.00
69318;BME280;56457;52.190;4.440;2022-09-09T02:20:18;100674.75;;;17.76;100.00
69318;BME280;56457;52.190;4.440;2022-09-09T02:21:19;100670.22;;;17.80;100.00
69318;BME280;56457;52.190;4.440;2022-09-09T02:22:22;100671.13;;;17.79;100.00
69318;BME280;56457;52.190;4.440;2022-09-09T02:23:24;100669.41;;;17.78;100.00
69318;BME280;56457;52.190;4.440;2022-09-09T02:24:27;100671.38;;;17.72;100.00
69318;BME280;56457;52.190;4.440;2022-09-09T02:25:29;100671.25;;;17.75;100.00
69318;BME280;56457;52.190;4.440;2022-09-09T02:26:32;100673.25;;;17.69;100.00
69318;BME280;56457;52.190;4.440;2022-09-09T02:27:34;100665.34;;;17.67;100.00
69318;BME280;56457;52.190;4.440;2022-09-09T02:28:36;100660.44;;;17.58;100.00
69318;BME280;56457;52.190;4.440;2022-09-09T02:29:42;100663.75;;;17.63;100.00
69318;BME280;56457;52.190;4.440;2022-09-09T02:30:45;100655.00;;;17.61;100.00
69318;BME280;56457;52.190;4.440;2022-09-09T02:31:48;100655.25;;;17.55;100.00
69318;BME280;56457;52.190;4.440;2022-09-09T02:32:52;100650.72;;;17.57;100.00
69318;BME280;56457;52.190;4.440;2022-09-09T02:34:01;100652.72;;;17.52;100.00
69318;BME280;56457;52.190;4.440;2022-09-09T02:35:07;100656.00;;;17.59;100.00
69318;BME280;56457;52.190;4.440;2022-09-09T02:36:10;100655.78;;;17.63;100.00
69318;BME280;56457;52.190;4.440;2022-09-09T02:37:13;100655.84;;;17.62;100.00
69318;BME280;56457;52.190;4.440;2022-09-09T02:38:16;100648.97;;;17.58;100.00
69318;BME280;56457;52.190;4.440;2022-09-09T02:39:17;100647.09;;;17.60;100.00
69318;BME280;56457;52.190;4.440;2022-09-09T02:40:18;100645.50;;;17.56;100.00
69318;BME280;56457;52.190;4.440;2022-09-09T02:41:26;100645.03;;;17.44;100.00
69318;BME280;56457;52.190;4.440;2022-09-09T02:42:28;100646.78;;;17.45;100.00
69318;BME280;56457;52.190;4.440;2022-09-09T02:43:32;100649.25;;;17.50;100.00
69318;BME280;56457;52.190;4.440;2022-09-09T02:44:33;100646.50;;;17.53;100.00
69318;BME280;56457;52.190;4.440;2022-09-09T02:45:36;100645.09;;;17.43;100.00
69318;BME280;56457;52.190;4.440;2022-09-09T02:48:07;100645.81;;;17.48;100.00
69318;BME280;56457;52.190;4.440;2022-09-09T02:49:19;100649.38;;;17.47;100.00
69318;BME280;56457;52.190;4.440;2022-09-09T02:50:24;100641.66;;;17.41;100.00
69318;BME280;56457;52.190;4.440;2022-09-09T02:51:40;100646.78;;;17.45;100.00
69318;BME280;56457;52.190;4.440;2022-09-09T02:55:41;100653.94;;;17.43;100.00
69318;BME280;56457;52.190;4.440;2022-09-09T02:56:49;100645.28;;;17.38;100.00
69318;BME280;56457;52.190;4.440;2022-09-09T02:57:52;100646.84;;;17.44;100.00
69318;BME280;56457;52.190;4.440;2022-09-09T02:58:53;100651.09;;;17.48;100.00
69318;BME280;56457;52.190;4.440;2022-09-09T02:59:57;100651.97;;;17.48;100.00
69318;BME280;56457;52.190;4.440;2022-09-09T03:00:58;100651.22;;;17.45;100.00
69318;BME280;56457;52.190;4.440;2022-09-09T03:01:58;100652.28;;;17.41;100.00
69318;BME280;56457;52.190;4.440;2022-09-09T03:02:59;100647.06;;;17.38;100.00
69318;BME280;56457;52.190;4.440;2022-09-09T03:03:59;100650.47;;;17.41;100.00
69318;BME280;56457;52.190;4.440;2022-09-09T03:05:00;100656.50;;;17.45;100.00
69318;BME280;56457;52.190;4.440;2022-09-09T03:06:01;100661.16;;;17.40;100.00
69318;BME280;56457;52.190;4.440;2022-09-09T03:07:01;100661.88;;;17.43;100.00
69318;BME280;56457;52.190;4.440;2022-09-09T03:08:06;100653.00;;;17.44;100.00
69318;BME280;56457;52.190;4.440;2022-09-09T03:09:07;100657.44;;;17.44;100.00
69318;BME280;56457;52.190;4.440;2022-09-09T03:10:08;100653.75;;;17.48;100.00
69318;BME280;56457;52.190;4.440;2022-09-09T03:11:08;100654.75;;;17.45;100.00
69318;BME280;56457;52.190;4.440;2022-09-09T03:12:10;100648.53;;;17.46;100.00
69318;BME280;56457;52.190;4.440;2022-09-09T03:13:11;100648.56;;;17.45;100.00
69318;BME280;56457;52.190;4.440;2022-09-09T03:14:13;100647.75;;;17.43;100.00
69318;BME280;56457;52.190;4.440;2022-09-09T03:15:13;100640.66;;;17.43;100.00
69318;BME280;56457;52.190;4.440;2022-09-09T03:16:14;100646.09;;;17.40;100.00
69318;BME280;56457;52.190;4.440;2022-09-09T03:17:15;100645.19;;;17.41;100.00
69318;BME280;56457;52.190;4.440;2022-09-09T03:18:16;100635.50;;;17.40;100.00
69318;BME280;56457;52.190;4.440;2022-09-09T03:19:17;100637.94;;;17.45;100.00
69318;BME280;56457;52.190;4.440;2022-09-09T03:20:18;100640.59;;;17.45;100.00
69318;BME280;56457;52.190;4.440;2022-09-09T03:21:19;100639.81;;;17.43;100.00
69318;BME280;56457;52.190;4.440;2022-09-09T03:22:19;100632.72;;;17.43;100.00
69318;BME280;56457;52.190;4.440;2022-09-09T03:23:21;100635.50;;;17.40;100.00
69318;BME280;56457;52.190;4.440;2022-09-09T03:24:22;100638.94;;;17.42;100.00
69318;BME280;56457;52.190;4.440;2022-09-09T03:25:23;100634.66;;;17.38;100.00
69318;BME280;56457;52.190;4.440;2022-09-09T03:26:26;100636.38;;;17.41;100.00
69318;BME280;56457;52.190;4.440;2022-09-09T03:27:27;100644.41;;;17.38;100.00
69318;BME280;56457;52.190;4.440;2022-09-09T03:28:27;100646.16;;;17.39;100.00
69318;BME280;56457;52.190;4.440;2022-09-09T03:29:31;100642.69;;;17.37;100.00
69318;BME280;56457;52.190;4.440;2022-09-09T03:30:31;100640.19;;;17.34;100.00
69318;BME280;56457;52.190;4.440;2022-09-09T03:31:33;100635.84;;;17.31;100.00
69318;BME280;56457;52.190;4.440;2022-09-09T03:32:34;100630.78;;;17.25;100.00
69318;BME280;56457;52.190;4.440;2022-09-09T03:33:34;100632.41;;;17.29;100.00
69318;BME280;56457;52.190;4.440;2022-09-09T03:34:36;100635.91;;;17.30;100.00
69318;BME280;56457;52.190;4.440;2022-09-09T03:35:45;100627.16;;;17.28;100.00
69318;BME280;56457;52.190;4.440;2022-09-09T03:36:47;100628.03;;;17.28;100.00
69318;BME280;56457;52.190;4.440;2022-09-09T03:37:49;100628.72;;;17.33;100.00
69318;BME280;56457;52.190;4.440;2022-09-09T03:38:49;100626.09;;;17.32;100.00
69318;BME280;56457;52.190;4.440;2022-09-09T03:39:51;100624.28;;;17.34;100.00
69318;BME280;56457;52.190;4.440;2022-09-09T03:40:52;100619.06;;;17.31;100.00
69318;BME280;56457;52.190;4.440;2022-09-09T03:41:57;100619.31;;;17.25;100.00
69318;BME280;56457;52.190;4.440;2022-09-09T03:42:58;100617.72;;;17.20;100.00
69318;BME280;56457;52.190;4.440;2022-09-09T03:43:58;100611.59;;;17.18;100.00
69318;BME280;56457;52.190;4.440;2022-09-09T03:44:59;100615.09;;;17.19;100.00
69318;BME280;56457;52.190;4.440;2022-09-09T03:45:59;100614.00;;;17.25;100.00
69318;BME280;56457;52.190;4.440;2022-09-09T03:47:00;100616.66;;;17.25;100.00
69318;BME280;56457;52.190;4.440;2022-09-09T03:48:01;100617.50;;;17.27;100.00
69318;BME280;56457;52.190;4.440;2022-09-09T03:49:01;100616.56;;;17.28;100.00
69318;BME280;56457;52.190;4.440;2022-09-09T03:50:03;100620.78;;;17.32;100.00
69318;BME280;56457;52.190;4.440;2022-09-09T03:51:04;100612.66;;;17.36;100.00
69318;BME280;56457;52.190;4.440;2022-09-09T03:52:05;100620.69;;;17.35;100.00
69318;BME280;56457;52.190;4.440;2022-09-09T03:53:05;100616.25;;;17.35;100.00
69318;BME280;56457;52.190;4.440;2022-09-09T03:54:07;100617.03;;;17.37;100.00
69318;BME280;56457;52.190;4.440;2022-09-09T03:55:10;100619.69;;;17.37;100.00
69318;BME280;56457;52.190;4.440;2022-09-09T03:56:10;100623.28;;;17.36;100.00
69318;BME280;56457;52.190;4.440;2022-09-09T03:57:11;100620.00;;;17.30;100.00
69318;BME280;56457;52.190;4.440;2022-09-09T03:58:13;100618.28;;;17.29;100.00
69318;BME280;56457;52.190;4.440;2022-09-09T03:59:14;100619.31;;;17.25;100.00
69318;BME280;56457;52.190;4.440;2022-09-09T04:00:15;100620.00;;;17.30;100.00
69318;BME280;56457;52.190;4.440;2022-09-09T04:01:15;100617.34;;;17.30;100.00
69318;BME280;56457;52.190;4.440;2022-09-09T04:02:18;100612.19;;;17.27;100.00
69318;BME280;56457;52.190;4.440;2022-09-09T04:03:18;100619.00;;;17.32;100.00
69318;BME280;56457;52.190;4.440;2022-09-09T04:04:19;100611.88;;;17.34;100.00
69318;BME280;56457;52.190;4.440;2022-09-09T04:05:20;100619.88;;;17.33;100.00
69318;BME280;56457;52.190;4.440;2022-09-09T04:06:20;100606.59;;;17.33;100.00
69318;BME280;56457;52.190;4.440;2022-09-09T04:07:21;100616.31;;;17.34;100.00
69318;BME280;56457;52.190;4.440;2022-09-09T04:08:22;100616.31;;;17.34;100.00
69318;BME280;56457;52.190;4.440;2022-09-09T04:09:25;100615.50;;;17.32;100.00
69318;BME280;56457;52.190;4.440;2022-09-09T04:10:25;100612.84;;;17.32;100.00
69318;BME280;56457;52.190;4.440;2022-09-09T04:11:26;100605.75;;;17.32;100.00
69318;BME280;56457;52.190;4.440;2022-09-09T04:12:27;100611.91;;;17.33;100.00
69318;BME280;56457;52.190;4.440;2022-09-09T04:13:28;100597.25;;;17.24;100.00
69318;BME280;56457;52.190;4.440;2022-09-09T04:14:28;100602.72;;;17.19;100.00
69318;BME280;56457;52.190;4.440;2022-09-09T04:15:29;100600.88;;;17.21;100.00
69318;BME280;56457;52.190;4.440;2022-09-09T04:16:30;100607.28;;;17.16;100.00
69318;BME280;56457;52.190;4.440;2022-09-09T04:17:31;100597.78;;;17.10;100.00
69318;BME280;56457;52.190;4.440;2022-09-09T04:18:32;100601.16;;;17.14;100.00
69318;BME280;56457;52.190;4.440;2022-09-09T04:19:33;100603.00;;;17.12;100.00
69318;BME280;56457;52.190;4.440;2022-09-09T04:20:33;100595.00;;;17.13;100.00
69318;BME280;56457;52.190;4.440;2022-09-09T04:21:34;100591.44;;;17.14;100.00
69318;BME280;56457;52.190;4.440;2022-09-09T04:22:34;100584.28;;;17.16;100.00
69318;BME280;56457;52.190;4.440;2022-09-09T04:23:35;100586.25;;;17.11;100.00
69318;BME280;56457;52.190;4.440;2022-09-09T04:24:36;100587.25;;;17.09;100.00
69318;BME280;56457;52.190;4.440;2022-09-09T04:25:36;100584.59;;;17.09;100.00
69318;BME280;56457;52.190;4.440;2022-09-09T04:26:38;100584.75;;;17.04;100.00
69318;BME280;56457;52.190;4.440;2022-09-09T04:27:38;100588.22;;;17.06;100.00
69318;BME280;56457;52.190;4.440;2022-09-09T04:28:39;100594.44;;;17.05;100.00
69318;BME280;56457;52.190;4.440;2022-09-09T04:29:39;100586.38;;;17.08;100.00
69318;BME280;56457;52.190;4.440;2022-09-09T04:30:40;100587.28;;;17.07;100.00
69318;BME280;56457;52.190;4.440;2022-09-09T04:31:41;100593.34;;;17.11;100.00
69318;BME280;56457;52.190;4.440;2022-09-09T04:32:42;100595.06;;;17.12;100.00
69318;BME280;56457;52.190;4.440;2022-09-09T04:33:42;100589.84;;;17.10;100.00
69318;BME280;56457;52.190;4.440;2022-09-09T04:34:43;100587.97;;;17.12;100.00
69318;BME280;56457;52.190;4.440;2022-09-09T04:35:46;100590.69;;;17.11;100.00
69318;BME280;56457;52.190;4.440;2022-09-09T04:36:47;100587.13;;;17.12;100.00
69318;BME280;56457;52.190;4.440;2022-09-09T04:37:48;100586.19;;;17.13;100.00
69318;BME280;56457;52.190;4.440;2022-09-09T04:38:48;100585.22;;;17.15;100.00
69318;BME280;56457;52.190;4.440;2022-09-09T04:39:49;100586.25;;;17.11;100.00
69318;BME280;56457;52.190;4.440;2022-09-09T04:40:50;100585.56;;;17.06;100.00
69318;BME280;56457;52.190;4.440;2022-09-09T04:41:52;100583.06;;;17.02;100.00
69318;BME280;56457;52.190;4.440;2022-09-09T04:42:53;100575.19;;;17.00;100.00
69318;BME280;56457;52.190;4.440;2022-09-09T04:43:54;100577.78;;;17.02;100.00
69318;BME280;56457;52.190;4.440;2022-09-09T04:44:54;100581.56;;;16.96;100.00
69318;BME280;56457;52.190;4.440;2022-09-09T04:45:55;100577.91;;;16.99;100.00
69318;BME280;56457;52.190;4.440;2022-09-09T04:46:56;100573.72;;;16.93;100.00
69318;BME280;56457;52.190;4.440;2022-09-09T04:47:57;100580.69;;;16.95;100.00
69318;BME280;56457;52.190;4.440;2022-09-09T04:48:57;100576.28;;;16.94;100.00
69318;BME280;56457;52.190;4.440;2022-09-09T04:49:58;100576.34;;;16.93;100.00
69318;BME280;56457;52.190;4.440;2022-09-09T04:51:00;100574.41;;;16.98;100.00
69318;BME280;56457;52.190;4.440;2022-09-09T04:52:02;100584.75;;;17.04;100.00
69318;BME280;56457;52.190;4.440;2022-09-09T04:53:04;100584.88;;;17.01;100.00
69318;BME280;56457;52.190;4.440;2022-09-09T04:54:05;100575.88;;;17.05;100.00
69318;BME280;56457;52.190;4.440;2022-09-09T04:55:06;100574.22;;;17.03;100.00
69318;BME280;56457;52.190;4.440;2022-09-09T04:56:08;100577.97;;;16.97;100.00
69318;BME280;56457;52.190;4.440;2022-09-09T04:57:10;100576.50;;;16.90;100.00
69318;BME280;56457;52.190;4.440;2022-09-09T04:58:11;100571.19;;;16.90;100.00
69318;BME280;56457;52.190;4.440;2022-09-09T04:59:11;100578.91;;;16.96;100.00
69318;BME280;56457;52.190;4.440;2022-09-09T05:00:12;100577.91;;;16.99;100.00
69318;BME280;56457;52.190;4.440;2022-09-09T05:01:16;100570.03;;;16.97;100.00
69318;BME280;56457;52.190;4.440;2022-09-09T05:02:20;100571.81;;;16.97;100.00
69318;BME280;56457;52.190;4.440;2022-09-09T05:03:21;100578.84;;;16.98;100.00
69318;BME280;56457;52.190;4.440;2022-09-09T05:04:21;100580.69;;;16.95;100.00
69318;BME280;56457;52.190;4.440;2022-09-09T05:05:22;100579.13;;;16.90;100.00
69318;BME280;56457;52.190;4.440;2022-09-09T05:06:22;100577.34;;;16.90;100.00
69318;BME280;56457;52.190;4.440;2022-09-09T05:07:23;100575.63;;;16.89;100.00
69318;BME280;56457;52.190;4.440;2022-09-09T05:08:24;100572.97;;;16.89;100.00
69318;BME280;56457;52.190;4.440;2022-09-09T05:09:24;100571.00;;;16.94;100.00
69318;BME280;56457;52.190;4.440;2022-09-09T05:10:25;100571.81;;;16.97;100.00
69318;BME280;56457;52.190;4.440;2022-09-09T05:11:28;100566.53;;;16.97;100.00
69318;BME280;56457;52.190;4.440;2022-09-09T05:12:30;100573.59;;;16.96;100.00
69318;BME280;56457;52.190;4.440;2022-09-09T05:13:31;100562.94;;;16.98;100.00
69318;BME280;56457;52.190;4.440;2022-09-09T05:14:32;100566.53;;;16.97;100.00
69318;BME280;56457;52.190;4.440;2022-09-09T05:15:32;100571.84;;;16.95;100.00
69318;BME280;56457;52.190;4.440;2022-09-09T05:16:33;100573.63;;;16.94;100.00
69318;BME280;56457;52.190;4.440;2022-09-09T05:17:33;100575.41;;;16.95;100.00
69318;BME280;56457;52.190;4.440;2022-09-09T05:18:34;100569.34;;;16.92;100.00
69318;BME280;56457;52.190;4.440;2022-09-09T05:19:35;100570.97;;;16.96;100.00
69318;BME280;56457;52.190;4.440;2022-09-09T05:20:35;100572.91;;;16.91;100.00
69318;BME280;56457;52.190;4.440;2022-09-09T05:21:36;100575.66;;;16.88;100.00
69318;BME280;56457;52.190;4.440;2022-09-09T05:22:37;100568.56;;;16.88;100.00
69318;BME280;56457;52.190;4.440;2022-09-09T05:23:38;100571.81;;;16.97;100.00
69318;BME280;56457;52.190;4.440;2022-09-09T05:24:38;100567.47;;;16.94;100.00
69318;BME280;56457;52.190;4.440;2022-09-09T05:25:39;100564.03;;;16.92;100.00
69318;BME280;56457;52.190;4.440;2022-09-09T05:26:43;100569.19;;;16.95;100.00
69318;BME280;56457;52.190;4.440;2022-09-09T05:27:44;100572.53;;;17.00;100.00
69318;BME280;56457;52.190;4.440;2022-09-09T05:28:45;100570.97;;;16.96;100.00
69318;BME280;56457;52.190;4.440;2022-09-09T05:29:46;100568.31;;;16.96;100.00
69318;BME280;56457;52.190;4.440;2022-09-09T05:30:55;100566.44;;;16.98;100.00
69318;BME280;56457;52.190;4.440;2022-09-09T05:31:55;100569.09;;;16.98;100.00
69318;BME280;56457;52.190;4.440;2022-09-09T05:32:56;100562.81;;;17.01;100.00
69318;BME280;56457;52.190;4.440;2022-09-09T05:33:57;100561.09;;;17.00;100.00
69318;BME280;56457;52.190;4.440;2022-09-09T05:34:57;100566.44;;;16.98;100.00
69318;BME280;56457;52.190;4.440;2022-09-09T05:36:09;100560.13;;;17.02;100.00
69318;BME280;56457;52.190;4.440;2022-09-09T05:37:11;100567.94;;;17.05;100.00
69318;BME280;56457;52.190;4.440;2022-09-09T05:38:11;100558.25;;;17.04;100.00
69318;BME280;56457;52.190;4.440;2022-09-09T05:39:12;100559.97;;;17.05;100.00
69318;BME280;56457;52.190;4.440;2022-09-09T05:40:13;100555.44;;;17.09;100.00
69318;BME280;56457;52.190;4.440;2022-09-09T05:41:14;100556.78;;;17.19;100.00
69318;BME280;56457;52.190;4.440;2022-09-09T05:42:17;100567.22;;;17.23;100.00
69318;BME280;56457;52.190;4.440;2022-09-09T05:43:21;100555.56;;;17.28;100.00
69318;BME280;56457;52.190;4.440;2022-09-09T05:44:22;100559.03;;;17.30;100.00
69318;BME280;56457;52.190;4.440;2022-09-09T05:45:27;100556.31;;;17.31;100.00
69318;BME280;56457;52.190;4.440;2022-09-09T05:46:28;100554.72;;;17.27;100.00
69318;BME280;56457;52.190;4.440;2022-09-09T05:47:29;100556.44;;;17.28;100.00
69318;BME280;56457;52.190;4.440;2022-09-09T05:48:32;100558.03;;;17.32;100.00
69318;BME280;56457;52.190;4.440;2022-09-09T05:49:32;100561.53;;;17.33;100.00
69318;BME280;56457;52.190;4.440;2022-09-09T05:50:33;100568.59;;;17.34;100.00
69318;BME280;56457;52.190;4.440;2022-09-09T05:51:33;100557.91;;;17.35;100.00
69318;BME280;56457;52.190;4.440;2022-09-09T05:52:34;100564.84;;;17.39;100.00
69318;BME280;56457;52.190;4.440;2022-09-09T05:53:35;100559.56;;;17.38;100.00
69318;BME280;56457;52.190;4.440;2022-09-09T05:54:35;100574.31;;;17.45;100.00
69318;BME280;56457;52.190;4.440;2022-09-09T05:55:37;100575.22;;;17.44;100.00
69318;BME280;56457;52.190;4.440;2022-09-09T05:56:38;100578.03;;;17.41;100.00
69318;BME280;56457;52.190;4.440;2022-09-09T05:57:39;100584.91;;;17.45;100.00